Coal Creek, Iowa
Current Conditions -  °F | °C
As of 8:35 PM on Saturday 22 Nov 2014 (Local Time) from KOOA Reporting Station
Broken Clouds Broken Clouds  
Wind Chill: 52°   Ceiling: 4900
Heat Index: 52°   Visibility: 10mi
Dew Point: 49°   Wind: 14mph
Humidity: 89%   Direction: 170°S
Pressure: 29.72"   Gusts: NA
Location:  41.3798°N, 92.3541°W
Report Text: KOOA 230235Z AUTO 17012KT 10SM SCT039 BKN049 11/09 A2972 RMK AO2 T01110094
Loading
Personal Weather Stations






























Interactive Weather Map New forecast layout! Learn more

10-Day Weather Forecast

Advertisements
Track Severe Weather on mobile